N172AW KCAK-KAKR
Flight info
| Callsign | N172AW |
|---|---|
| Flight time | N/A |
| Altitude | VFR/020 |
| Route | KAKR |
| Aircraft | C172/L-VGD/C |
Departure
| Time | 2026-04-26 00:52 |
|---|---|
| Airport | Akron Canton Regional Airport (KCAK) |
Arrival
| Time | N/A |
|---|---|
| Airport | Akron Fulton International Airport (KAKR) |
| Time | Latitude | Longitude | Altitude | Speed | Heading |
|---|---|---|---|---|---|
| 2026-04-26 00:52 | 41.02672 | -81.43908 | 2158 ft | 94 kts | 8° |
| 2026-04-26 00:52 | 41.03311 | -81.43831 | 2195 ft | 91 kts | 6° |
| 2026-04-26 00:52 | 41.03954 | -81.43816 | 2168 ft | 94 kts | 1° |
| 2026-04-26 00:53 | 41.04606 | -81.43922 | 2066 ft | 104 kts | 333° |
| 2026-04-26 00:53 | 41.04696 | -81.44848 | 1972 ft | 121 kts | 251° |
| 2026-04-26 00:53 | 41.04352 | -81.45832 | 1880 ft | 116 kts | 251° |
| 2026-04-26 00:53 | 41.03995 | -81.46808 | 1769 ft | 117 kts | 250° |
| 2026-04-26 00:54 | 41.03633 | -81.47774 | 1722 ft | 115 kts | 250° |
| 2026-04-26 00:54 | 41.03099 | -81.48529 | 1767 ft | 112 kts | 202° |
| 2026-04-26 00:54 | 41.02389 | -81.48349 | 1779 ft | 107 kts | 150° |
| 2026-04-26 00:54 | 41.02124 | -81.47630 | 1759 ft | 90 kts | 65° |
| 2026-04-26 00:55 | 41.02440 | -81.46919 | 1735 ft | 90 kts | 53° |
| 2026-04-26 00:55 | 41.02788 | -81.46157 | 1777 ft | 102 kts | 48° |
| 2026-04-26 00:55 | 41.03242 | -81.45390 | 1847 ft | 108 kts | 49° |
| 2026-04-26 00:55 | 41.03646 | -81.44627 | 1856 ft | 98 kts | 47° |
| 2026-04-26 00:56 | 41.04129 | -81.44846 | 1624 ft | 109 kts | 296° |
| 2026-04-26 00:56 | 41.04113 | -81.45821 | 1158 ft | 118 kts | 244° |
| 2026-04-26 00:56 | 41.03765 | -81.46690 | 1057 ft | 93 kts | 249° |
| 2026-04-26 00:56 | 41.03468 | -81.47404 | 1167 ft | 91 kts | 250° |
| 2026-04-26 00:57 | 41.03109 | -81.48132 | 1409 ft | 95 kts | 240° |
| 2026-04-26 00:57 | 41.02683 | -81.48854 | 1568 ft | 101 kts | 240° |
| 2026-04-26 00:57 | 41.02181 | -81.49511 | 1693 ft | 115 kts | 214° |
| 2026-04-26 00:57 | 41.01447 | -81.49872 | 1921 ft | 108 kts | 166° |
| 2026-04-26 00:58 | 41.00826 | -81.49343 | 2083 ft | 113 kts | 135° |
| 2026-04-26 00:58 | 41.00227 | -81.48642 | 2216 ft | 117 kts | 132° |
| 2026-04-26 00:58 | 40.99612 | -81.47894 | 2271 ft | 127 kts | 132° |
| 2026-04-26 00:58 | 40.98942 | -81.47075 | 2267 ft | 134 kts | 132° |
| 2026-04-26 00:59 | 40.98261 | -81.46233 | 2266 ft | 134 kts | 132° |
| 2026-04-26 00:59 | 40.97586 | -81.45389 | 2263 ft | 134 kts | 132° |
| 2026-04-26 00:59 | 40.96904 | -81.44542 | 2271 ft | 134 kts | 132° |
| 2026-04-26 00:59 | 40.96226 | -81.43691 | 2272 ft | 135 kts | 132° |
| 2026-04-26 01:00 | 40.95527 | -81.42850 | 2268 ft | 137 kts | 138° |
| 2026-04-26 01:00 | 40.94886 | -81.42306 | 2271 ft | 138 kts | 144° |
| 2026-04-26 01:00 | 40.94081 | -81.41643 | 2272 ft | 138 kts | 144° |
| 2026-04-26 01:00 | 40.93265 | -81.40975 | 2270 ft | 137 kts | 144° |
| 2026-04-26 01:01 | 40.92453 | -81.40311 | 2274 ft | 137 kts | 143° |
| 2026-04-26 01:01 | 40.91632 | -81.39672 | 2276 ft | 138 kts | 148° |
| 2026-04-26 01:01 | 40.90770 | -81.39120 | 2277 ft | 138 kts | 150° |
| 2026-04-26 01:01 | 40.89900 | -81.38552 | 2276 ft | 141 kts | 150° |
| 2026-04-26 01:02 | 40.89015 | -81.37977 | 2276 ft | 141 kts | 149° |
| 2026-04-26 01:02 | 40.88139 | -81.37410 | 2273 ft | 141 kts | 149° |
| 2026-04-26 01:02 | 40.87257 | -81.36851 | 2270 ft | 141 kts | 150° |
| 2026-04-26 01:02 | 40.86394 | -81.36284 | 2275 ft | 140 kts | 150° |
| 2026-04-26 01:03 | 40.85570 | -81.35741 | 2501 ft | 126 kts | 149° |
| 2026-04-26 01:03 | 40.84807 | -81.35252 | 2746 ft | 119 kts | 149° |
| 2026-04-26 01:03 | 40.84076 | -81.34794 | 2995 ft | 114 kts | 149° |
| 2026-04-26 01:03 | 40.83371 | -81.34362 | 3247 ft | 110 kts | 150° |
| 2026-04-26 01:04 | 40.82690 | -81.33947 | 3484 ft | 106 kts | 148° |
| 2026-04-26 01:04 | 40.82020 | -81.33575 | 3723 ft | 103 kts | 149° |
| 2026-04-26 01:04 | 40.81372 | -81.33235 | 3958 ft | 97 kts | 148° |
| 2026-04-26 01:04 | 40.80762 | -81.32900 | 4191 ft | 92 kts | 148° |
| 2026-04-26 01:05 | 40.80188 | -81.32588 | 4411 ft | 85 kts | 147° |
| 2026-04-26 01:05 | 40.79653 | -81.32307 | 4533 ft | 83 kts | 150° |
| 2026-04-26 01:05 | 40.79147 | -81.32014 | 4408 ft | 63 kts | 109° |
| 2026-04-26 01:05 | 40.78381 | -81.31337 | 3026 ft | 159 kts | 157° |
| 2026-04-26 01:06 | 40.77482 | -81.30905 | 3276 ft | 137 kts | 152° |
| 2026-04-26 01:06 | 40.76693 | -81.30450 | 3644 ft | 109 kts | 151° |
| 2026-04-26 01:06 | 40.75964 | -81.30040 | 3747 ft | 118 kts | 151° |
| 2026-04-26 01:06 | 40.75204 | -81.29582 | 3856 ft | 122 kts | 150° |
| 2026-04-26 01:07 | 40.74423 | -81.29115 | 3958 ft | 125 kts | 149° |
| 2026-04-26 01:07 | 40.73617 | -81.28667 | 4062 ft | 126 kts | 150° |
| 2026-04-26 01:07 | 40.72834 | -81.28201 | 4172 ft | 126 kts | 149° |